sensor_id;sensor_type;location;lat;lon;timestamp;P1;durP1;ratioP1;P2;durP2;ratioP2
22378;SDS011;11357;49.990;7.370;2022-09-21T00:01:08;89.43;;;45.03;;
22378;SDS011;11357;49.990;7.370;2022-09-21T00:03:40;100.67;;;46.10;;
22378;SDS011;11357;49.990;7.370;2022-09-21T00:06:08;78.40;;;44.23;;
22378;SDS011;11357;49.990;7.370;2022-09-21T00:08:35;74.40;;;39.57;;
22378;SDS011;11357;49.990;7.370;2022-09-21T00:11:01;78.63;;;43.27;;
22378;SDS011;11357;49.990;7.370;2022-09-21T00:13:28;95.77;;;47.73;;
22378;SDS011;11357;49.990;7.370;2022-09-21T00:15:55;81.60;;;49.87;;
22378;SDS011;11357;49.990;7.370;2022-09-21T00:18:22;77.33;;;48.87;;
22378;SDS011;11357;49.990;7.370;2022-09-21T00:20:48;81.10;;;56.90;;
22378;SDS011;11357;49.990;7.370;2022-09-21T00:23:14;77.93;;;50.10;;
22378;SDS011;11357;49.990;7.370;2022-09-21T00:25:39;93.53;;;55.73;;
22378;SDS011;11357;49.990;7.370;2022-09-21T00:28:05;105.97;;;64.77;;
22378;SDS011;11357;49.990;7.370;2022-09-21T00:30:31;85.20;;;53.77;;
22378;SDS011;11357;49.990;7.370;2022-09-21T00:32:57;92.77;;;63.50;;
22378;SDS011;11357;49.990;7.370;2022-09-21T00:35:23;102.80;;;56.40;;
22378;SDS011;11357;49.990;7.370;2022-09-21T00:37:49;90.40;;;61.33;;
22378;SDS011;11357;49.990;7.370;2022-09-21T00:40:15;89.70;;;58.13;;
22378;SDS011;11357;49.990;7.370;2022-09-21T00:42:41;90.17;;;59.83;;
22378;SDS011;11357;49.990;7.370;2022-09-21T00:45:09;80.97;;;53.20;;
22378;SDS011;11357;49.990;7.370;2022-09-21T00:47:45;101.80;;;65.93;;
22378;SDS011;11357;49.990;7.370;2022-09-21T00:50:15;97.07;;;64.40;;
22378;SDS011;11357;49.990;7.370;2022-09-21T00:52:45;93.40;;;64.97;;
22378;SDS011;11357;49.990;7.370;2022-09-21T00:55:21;85.37;;;49.90;;
22378;SDS011;11357;49.990;7.370;2022-09-21T00:58:06;100.13;;;72.13;;
22378;SDS011;11357;49.990;7.370;2022-09-21T01:00:36;89.77;;;56.10;;
22378;SDS011;11357;49.990;7.370;2022-09-21T01:03:03;71.17;;;44.40;;
22378;SDS011;11357;49.990;7.370;2022-09-21T01:05:30;96.73;;;57.00;;
22378;SDS011;11357;49.990;7.370;2022-09-21T01:07:56;98.13;;;69.33;;
22378;SDS011;11357;49.990;7.370;2022-09-21T01:10:26;87.20;;;61.30;;
22378;SDS011;11357;49.990;7.370;2022-09-21T01:18:49;102.37;;;79.40;;
22378;SDS011;11357;49.990;7.370;2022-09-21T01:21:36;99.50;;;70.40;;
22378;SDS011;11357;49.990;7.370;2022-09-21T01:30:12;114.27;;;88.80;;
22378;SDS011;11357;49.990;7.370;2022-09-21T01:36:11;105.87;;;74.00;;
22378;SDS011;11357;49.990;7.370;2022-09-21T01:38:25;106.10;;;73.50;;
22378;SDS011;11357;49.990;7.370;2022-09-21T01:41:00;95.37;;;70.03;;
22378;SDS011;11357;49.990;7.370;2022-09-21T01:43:33;102.93;;;78.20;;
22378;SDS011;11357;49.990;7.370;2022-09-21T01:46:01;128.77;;;84.17;;
22378;SDS011;11357;49.990;7.370;2022-09-21T01:48:31;92.57;;;56.27;;
22378;SDS011;11357;49.990;7.370;2022-09-21T01:51:03;95.27;;;61.10;;
22378;SDS011;11357;49.990;7.370;2022-09-21T01:53:40;85.47;;;51.77;;
22378;SDS011;11357;49.990;7.370;2022-09-21T01:56:14;100.03;;;54.67;;
22378;SDS011;11357;49.990;7.370;2022-09-21T01:58:46;92.43;;;60.30;;
22378;SDS011;11357;49.990;7.370;2022-09-21T02:01:30;108.40;;;70.80;;
22378;SDS011;11357;49.990;7.370;2022-09-21T02:04:03;104.30;;;63.40;;
22378;SDS011;11357;49.990;7.370;2022-09-21T02:06:34;111.93;;;70.83;;
22378;SDS011;11357;49.990;7.370;2022-09-21T02:09:02;97.23;;;66.00;;
22378;SDS011;11357;49.990;7.370;2022-09-21T02:11:28;90.30;;;58.70;;
22378;SDS011;11357;49.990;7.370;2022-09-21T02:13:54;100.33;;;74.23;;
22378;SDS011;11357;49.990;7.370;2022-09-21T02:27:03;116.13;;;77.93;;
22378;SDS011;11357;49.990;7.370;2022-09-21T02:29:46;110.20;;;73.17;;
22378;SDS011;11357;49.990;7.370;2022-09-21T02:38:34;141.10;;;89.07;;
22378;SDS011;11357;49.990;7.370;2022-09-21T02:41:12;137.93;;;101.40;;
22378;SDS011;11357;49.990;7.370;2022-09-21T02:46:29;109.27;;;86.57;;
22378;SDS011;11357;49.990;7.370;2022-09-21T02:49:07;141.70;;;116.70;;
22378;SDS011;11357;49.990;7.370;2022-09-21T02:51:49;152.53;;;114.43;;
22378;SDS011;11357;49.990;7.370;2022-09-21T02:54:19;130.87;;;105.97;;
22378;SDS011;11357;49.990;7.370;2022-09-21T02:56:50;134.77;;;112.60;;
22378;SDS011;11357;49.990;7.370;2022-09-21T02:59:18;134.33;;;95.33;;
22378;SDS011;11357;49.990;7.370;2022-09-21T03:01:46;138.50;;;100.67;;
22378;SDS011;11357;49.990;7.370;2022-09-21T03:04:12;132.00;;;104.57;;
22378;SDS011;11357;49.990;7.370;2022-09-21T03:06:37;141.97;;;100.70;;
22378;SDS011;11357;49.990;7.370;2022-09-21T03:09:03;141.53;;;111.47;;
22378;SDS011;11357;49.990;7.370;2022-09-21T03:11:29;126.07;;;108.67;;
22378;SDS011;11357;49.990;7.370;2022-09-21T03:13:55;156.80;;;125.77;;
22378;SDS011;11357;49.990;7.370;2022-09-21T03:16:21;135.17;;;115.57;;
22378;SDS011;11357;49.990;7.370;2022-09-21T03:18:48;145.03;;;122.13;;
22378;SDS011;11357;49.990;7.370;2022-09-21T03:21:13;164.60;;;121.77;;
22378;SDS011;11357;49.990;7.370;2022-09-21T03:23:39;156.37;;;134.20;;
22378;SDS011;11357;49.990;7.370;2022-09-21T03:26:05;134.37;;;116.77;;
22378;SDS011;11357;49.990;7.370;2022-09-21T03:28:31;142.30;;;119.73;;
22378;SDS011;11357;49.990;7.370;2022-09-21T03:30:57;139.27;;;120.30;;
22378;SDS011;11357;49.990;7.370;2022-09-21T03:33:22;126.77;;;113.17;;
22378;SDS011;11357;49.990;7.370;2022-09-21T03:35:49;117.10;;;96.20;;
22378;SDS011;11357;49.990;7.370;2022-09-21T03:38:16;122.83;;;98.03;;
22378;SDS011;11357;49.990;7.370;2022-09-21T03:40:46;137.00;;;97.47;;
22378;SDS011;11357;49.990;7.370;2022-09-21T03:43:13;138.60;;;105.67;;
22378;SDS011;11357;49.990;7.370;2022-09-21T03:45:39;136.30;;;96.50;;
22378;SDS011;11357;49.990;7.370;2022-09-21T03:48:06;125.30;;;91.07;;
22378;SDS011;11357;49.990;7.370;2022-09-21T03:50:33;133.07;;;93.80;;
22378;SDS011;11357;49.990;7.370;2022-09-21T03:52:58;121.37;;;97.13;;
22378;SDS011;11357;49.990;7.370;2022-09-21T03:55:24;128.17;;;99.60;;
22378;SDS011;11357;49.990;7.370;2022-09-21T03:57:50;118.00;;;93.23;;
22378;SDS011;11357;49.990;7.370;2022-09-21T04:00:16;121.33;;;94.27;;
22378;SDS011;11357;49.990;7.370;2022-09-21T04:02:42;116.03;;;89.63;;
22378;SDS011;11357;49.990;7.370;2022-09-21T04:05:09;137.23;;;108.93;;
22378;SDS011;11357;49.990;7.370;2022-09-21T04:07:38;124.47;;;96.50;;
22378;SDS011;11357;49.990;7.370;2022-09-21T04:10:05;131.97;;;93.03;;
22378;SDS011;11357;49.990;7.370;2022-09-21T04:12:33;119.10;;;95.00;;
22378;SDS011;11357;49.990;7.370;2022-09-21T04:15:02;131.83;;;101.20;;
22378;SDS011;11357;49.990;7.370;2022-09-21T04:17:31;133.77;;;103.93;;
22378;SDS011;11357;49.990;7.370;2022-09-21T04:19:58;127.00;;;102.33;;
22378;SDS011;11357;49.990;7.370;2022-09-21T04:22:24;137.70;;;101.60;;
22378;SDS011;11357;49.990;7.370;2022-09-21T04:24:50;160.37;;;115.83;;
22378;SDS011;11357;49.990;7.370;2022-09-21T04:27:16;151.07;;;119.63;;
22378;SDS011;11357;49.990;7.370;2022-09-21T04:29:42;142.63;;;121.43;;
22378;SDS011;11357;49.990;7.370;2022-09-21T04:32:08;128.57;;;100.43;;
22378;SDS011;11357;49.990;7.370;2022-09-21T04:34:35;136.93;;;99.97;;
22378;SDS011;11357;49.990;7.370;2022-09-21T04:37:03;144.80;;;119.70;;
22378;SDS011;11357;49.990;7.370;2022-09-21T04:39:30;150.17;;;119.17;;
22378;SDS011;11357;49.990;7.370;2022-09-21T04:41:56;125.90;;;111.07;;
22378;SDS011;11357;49.990;7.370;2022-09-21T04:44:22;155.20;;;133.40;;
22378;SDS011;11357;49.990;7.370;2022-09-21T04:46:48;145.57;;;120.80;;
22378;SDS011;11357;49.990;7.370;2022-09-21T04:49:14;156.07;;;121.37;;
22378;SDS011;11357;49.990;7.370;2022-09-21T04:51:40;147.33;;;120.93;;
22378;SDS011;11357;49.990;7.370;2022-09-21T04:54:05;153.00;;;119.13;;
22378;SDS011;11357;49.990;7.370;2022-09-21T04:56:31;170.80;;;152.33;;
22378;SDS011;11357;49.990;7.370;2022-09-21T04:58:57;155.60;;;135.03;;
22378;SDS011;11357;49.990;7.370;2022-09-21T05:01:23;175.83;;;151.90;;
22378;SDS011;11357;49.990;7.370;2022-09-21T05:03:49;176.37;;;137.60;;
22378;SDS011;11357;49.990;7.370;2022-09-21T05:06:14;168.10;;;139.87;;
22378;SDS011;11357;49.990;7.370;2022-09-21T05:08:40;171.67;;;137.37;;
22378;SDS011;11357;49.990;7.370;2022-09-21T05:11:24;205.10;;;178.33;;
22378;SDS011;11357;49.990;7.370;2022-09-21T05:13:50;214.27;;;160.97;;
22378;SDS011;11357;49.990;7.370;2022-09-21T05:16:16;184.53;;;164.57;;
22378;SDS011;11357;49.990;7.370;2022-09-21T05:18:43;205.00;;;182.10;;
22378;SDS011;11357;49.990;7.370;2022-09-21T05:21:10;167.70;;;143.93;;
22378;SDS011;11357;49.990;7.370;2022-09-21T05:23:37;183.07;;;147.43;;
22378;SDS011;11357;49.990;7.370;2022-09-21T05:26:03;171.63;;;150.17;;
22378;SDS011;11357;49.990;7.370;2022-09-21T05:28:29;214.17;;;188.90;;
22378;SDS011;11357;49.990;7.370;2022-09-21T05:31:03;204.77;;;183.70;;
22378;SDS011;11357;49.990;7.370;2022-09-21T05:33:48;206.83;;;186.07;;
22378;SDS011;11357;49.990;7.370;2022-09-21T05:39:05;256.33;;;231.17;;
22378;SDS011;11357;49.990;7.370;2022-09-21T05:41:32;194.23;;;170.97;;
22378;SDS011;11357;49.990;7.370;2022-09-21T05:43:58;166.83;;;144.93;;
22378;SDS011;11357;49.990;7.370;2022-09-21T05:49:00;207.83;;;172.77;;
22378;SDS011;11357;49.990;7.370;2022-09-21T05:54:21;194.73;;;167.60;;
22378;SDS011;11357;49.990;7.370;2022-09-21T05:57:10;195.57;;;157.63;;
22378;SDS011;11357;49.990;7.370;2022-09-21T06:00:15;219.17;;;196.67;;
22378;SDS011;11357;49.990;7.370;2022-09-21T06:05:45;231.50;;;206.10;;
22378;SDS011;11357;49.990;7.370;2022-09-21T06:08:11;166.93;;;148.93;;
22378;SDS011;11357;49.990;7.370;2022-09-21T06:10:37;178.93;;;159.73;;
22378;SDS011;11357;49.990;7.370;2022-09-21T06:13:02;152.57;;;135.93;;
22378;SDS011;11357;49.990;7.370;2022-09-21T06:15:28;151.27;;;119.13;;
22378;SDS011;11357;49.990;7.370;2022-09-21T06:17:54;160.77;;;130.70;;
22378;SDS011;11357;49.990;7.370;2022-09-21T06:20:19;236.40;;;172.47;;
22378;SDS011;11357;49.990;7.370;2022-09-21T06:22:45;202.47;;;162.03;;
22378;SDS011;11357;49.990;7.370;2022-09-21T06:25:11;195.80;;;142.00;;
22378;SDS011;11357;49.990;7.370;2022-09-21T06:27:36;255.07;;;133.60;;
22378;SDS011;11357;49.990;7.370;2022-09-21T06:30:02;201.80;;;127.13;;
22378;SDS011;11357;49.990;7.370;2022-09-21T06:32:28;220.17;;;124.13;;
22378;SDS011;11357;49.990;7.370;2022-09-21T06:34:55;154.20;;;112.63;;
22378;SDS011;11357;49.990;7.370;2022-09-21T06:37:20;186.23;;;113.73;;
22378;SDS011;11357;49.990;7.370;2022-09-21T06:39:46;182.63;;;109.23;;
22378;SDS011;11357;49.990;7.370;2022-09-21T06:42:12;154.37;;;107.03;;
22378;SDS011;11357;49.990;7.370;2022-09-21T06:44:37;165.70;;;100.77;;
22378;SDS011;11357;49.990;7.370;2022-09-21T06:47:03;140.43;;;86.13;;
22378;SDS011;11357;49.990;7.370;2022-09-21T06:49:29;109.97;;;78.60;;
22378;SDS011;11357;49.990;7.370;2022-09-21T06:51:54;110.50;;;76.27;;
22378;SDS011;11357;49.990;7.370;2022-09-21T06:54:20;121.83;;;71.80;;
22378;SDS011;11357;49.990;7.370;2022-09-21T06:56:46;92.10;;;62.00;;
22378;SDS011;11357;49.990;7.370;2022-09-21T06:59:11;96.13;;;61.87;;
22378;SDS011;11357;49.990;7.370;2022-09-21T07:01:37;104.03;;;60.93;;
22378;SDS011;11357;49.990;7.370;2022-09-21T07:04:03;92.07;;;63.37;;
22378;SDS011;11357;49.990;7.370;2022-09-21T07:06:28;79.40;;;56.70;;
22378;SDS011;11357;49.990;7.370;2022-09-21T07:08:54;101.17;;;61.43;;
22378;SDS011;11357;49.990;7.370;2022-09-21T07:11:20;100.63;;;60.40;;
22378;SDS011;11357;49.990;7.370;2022-09-21T07:13:47;92.33;;;59.80;;
22378;SDS011;11357;49.990;7.370;2022-09-21T07:16:14;91.77;;;48.10;;
22378;SDS011;11357;49.990;7.370;2022-09-21T07:18:40;94.03;;;48.13;;
22378;SDS011;11357;49.990;7.370;2022-09-21T07:21:07;85.77;;;50.23;;
22378;SDS011;11357;49.990;7.370;2022-09-21T07:23:34;78.77;;;44.83;;
22378;SDS011;11357;49.990;7.370;2022-09-21T07:26:05;102.67;;;56.77;;
22378;SDS011;11357;49.990;7.370;2022-09-21T07:28:35;64.17;;;35.10;;
22378;SDS011;11357;49.990;7.370;2022-09-21T07:31:05;70.23;;;36.33;;
22378;SDS011;11357;49.990;7.370;2022-09-21T07:33:32;77.97;;;37.80;;
22378;SDS011;11357;49.990;7.370;2022-09-21T07:36:00;71.57;;;37.43;;
22378;SDS011;11357;49.990;7.370;2022-09-21T07:38:28;75.70;;;44.20;;
22378;SDS011;11357;49.990;7.370;2022-09-21T07:40:53;79.53;;;35.20;;
22378;SDS011;11357;49.990;7.370;2022-09-21T07:43:19;71.00;;;35.47;;
22378;SDS011;11357;49.990;7.370;2022-09-21T07:45:52;74.50;;;37.67;;
22378;SDS011;11357;49.990;7.370;2022-09-21T07:48:21;83.20;;;40.30;;
22378;SDS011;11357;49.990;7.370;2022-09-21T07:50:47;76.50;;;35.53;;
22378;SDS011;11357;49.990;7.370;2022-09-21T07:53:13;67.47;;;34.20;;
22378;SDS011;11357;49.990;7.370;2022-09-21T07:55:41;68.20;;;31.43;;
22378;SDS011;11357;49.990;7.370;2022-09-21T07:58:07;69.57;;;31.67;;
22378;SDS011;11357;49.990;7.370;2022-09-21T08:00:52;77.30;;;36.37;;
22378;SDS011;11357;49.990;7.370;2022-09-21T08:03:18;76.60;;;30.80;;
22378;SDS011;11357;49.990;7.370;2022-09-21T08:05:44;64.90;;;31.53;;
22378;SDS011;11357;49.990;7.370;2022-09-21T08:08:09;85.40;;;37.17;;
22378;SDS011;11357;49.990;7.370;2022-09-21T08:10:35;68.23;;;30.37;;
22378;SDS011;11357;49.990;7.370;2022-09-21T08:13:01;71.97;;;25.57;;
22378;SDS011;11357;49.990;7.370;2022-09-21T08:15:27;69.90;;;26.43;;
22378;SDS011;11357;49.990;7.370;2022-09-21T08:17:53;66.63;;;29.73;;
22378;SDS011;11357;49.990;7.370;2022-09-21T08:20:19;110.03;;;55.97;;
22378;SDS011;11357;49.990;7.370;2022-09-21T08:22:45;77.00;;;30.63;;
22378;SDS011;11357;49.990;7.370;2022-09-21T08:25:11;83.40;;;29.47;;
22378;SDS011;11357;49.990;7.370;2022-09-21T08:27:37;72.33;;;32.40;;
22378;SDS011;11357;49.990;7.370;2022-09-21T08:30:04;90.53;;;34.30;;
22378;SDS011;11357;49.990;7.370;2022-09-21T08:32:31;107.37;;;41.63;;
22378;SDS011;11357;49.990;7.370;2022-09-21T08:34:57;140.37;;;77.10;;
22378;SDS011;11357;49.990;7.370;2022-09-21T08:37:23;93.90;;;46.63;;
22378;SDS011;11357;49.990;7.370;2022-09-21T08:39:49;106.47;;;47.77;;
22378;SDS011;11357;49.990;7.370;2022-09-21T08:45:11;110.93;;;73.07;;
22378;SDS011;11357;49.990;7.370;2022-09-21T08:47:58;140.90;;;93.87;;
22378;SDS011;11357;49.990;7.370;2022-09-21T08:50:36;127.47;;;62.57;;
22378;SDS011;11357;49.990;7.370;2022-09-21T08:53:08;299.90;;;268.90;;
22378;SDS011;11357;49.990;7.370;2022-09-21T08:55:39;264.83;;;170.83;;
22378;SDS011;11357;49.990;7.370;2022-09-21T08:58:26;1068.37;;;706.93;;
22378;SDS011;11357;49.990;7.370;2022-09-21T09:01:07;1962.33;;;955.40;;
22378;SDS011;11357;49.990;7.370;2022-09-21T09:08:50;346.07;;;316.97;;
22378;SDS011;11357;49.990;7.370;2022-09-21T09:11:27;1171.33;;;894.63;;
22378;SDS011;11357;49.990;7.370;2022-09-21T09:14:16;1658.00;;;863.07;;
22378;SDS011;11357;49.990;7.370;2022-09-21T09:19:42;1458.70;;;496.30;;
22378;SDS011;11357;49.990;7.370;2022-09-21T09:22:42;1999.90;;;999.90;;
22378;SDS011;11357;49.990;7.370;2022-09-21T09:25:27;1840.57;;;412.57;;
22378;SDS011;11357;49.990;7.370;2022-09-21T09:28:03;1986.43;;;923.20;;
22378;SDS011;11357;49.990;7.370;2022-09-21T09:30:39;1999.90;;;728.10;;
22378;SDS011;11357;49.990;7.370;2022-09-21T09:33:20;1999.90;;;716.00;;
22378;SDS011;11357;49.990;7.370;2022-09-21T09:36:23;945.08;;;531.58;;
22378;SDS011;11357;49.990;7.370;2022-09-21T09:39:15;1999.90;;;999.90;;
22378;SDS011;11357;49.990;7.370;2022-09-21T09:44:19;1999.90;;;916.03;;
22378;SDS011;11357;49.990;7.370;2022-09-21T09:47:09;1722.53;;;855.77;;
22378;SDS011;11357;49.990;7.370;2022-09-21T09:52:26;1054.93;;;818.40;;
22378;SDS011;11357;49.990;7.370;2022-09-21T09:54:52;1685.38;;;999.90;;
22378;SDS011;11357;49.990;7.370;2022-09-21T09:57:23;1479.28;;;987.85;;
22378;SDS011;11357;49.990;7.370;2022-09-21T09:59:54;1999.90;;;999.90;;
22378;SDS011;11357;49.990;7.370;2022-09-21T10:02:25;1031.63;;;854.22;;
22378;SDS011;11357;49.990;7.370;2022-09-21T10:04:59;1999.90;;;834.15;;
22378;SDS011;11357;49.990;7.370;2022-09-21T10:07:34;789.55;;;719.58;;
22378;SDS011;11357;49.990;7.370;2022-09-21T10:18:23;1937.55;;;958.47;;
22378;SDS011;11357;49.990;7.370;2022-09-21T10:23:30;158.75;;;148.98;;
22378;SDS011;11357;49.990;7.370;2022-09-21T10:25:59;718.08;;;659.35;;
22378;SDS011;11357;49.990;7.370;2022-09-21T10:28:27;1841.97;;;946.72;;
22378;SDS011;11357;49.990;7.370;2022-09-21T10:31:11;155.55;;;146.25;;
22378;SDS011;11357;49.990;7.370;2022-09-21T10:36:37;21.73;;;20.33;;
22378;SDS011;11357;49.990;7.370;2022-09-21T10:44:26;176.23;;;165.38;;
22378;SDS011;11357;49.990;7.370;2022-09-21T10:47:22;723.20;;;653.05;;
22378;SDS011;11357;49.990;7.370;2022-09-21T10:50:01;147.50;;;137.05;;
22378;SDS011;11357;49.990;7.370;2022-09-21T10:52:33;113.30;;;106.70;;
22378;SDS011;11357;49.990;7.370;2022-09-21T10:55:03;1202.93;;;887.40;;
22378;SDS011;11357;49.990;7.370;2022-09-21T10:57:29;587.80;;;538.90;;
22378;SDS011;11357;49.990;7.370;2022-09-21T10:59:57;244.57;;;231.30;;
22378;SDS011;11357;49.990;7.370;2022-09-21T11:02:36;447.63;;;417.70;;
22378;SDS011;11357;49.990;7.370;2022-09-21T11:08:13;115.03;;;108.30;;
22378;SDS011;11357;49.990;7.370;2022-09-21T11:16:10;1005.80;;;817.45;;
22378;SDS011;11357;49.990;7.370;2022-09-21T11:21:41;379.55;;;350.55;;
22378;SDS011;11357;49.990;7.370;2022-09-21T11:27:08;48.38;;;44.30;;
22378;SDS011;11357;49.990;7.370;2022-09-21T11:32:22;13.73;;;12.88;;
22378;SDS011;11357;49.990;7.370;2022-09-21T11:35:08;17.40;;;16.47;;
22378;SDS011;11357;49.990;7.370;2022-09-21T11:40:31;636.03;;;583.40;;
22378;SDS011;11357;49.990;7.370;2022-09-21T11:43:24;402.47;;;375.73;;
22378;SDS011;11357;49.990;7.370;2022-09-21T11:49:02;55.08;;;52.25;;
22378;SDS011;11357;49.990;7.370;2022-09-21T11:57:08;101.85;;;96.30;;
22378;SDS011;11357;49.990;7.370;2022-09-21T12:05:28;255.40;;;239.87;;
22378;SDS011;11357;49.990;7.370;2022-09-21T12:10:45;248.10;;;229.45;;
22378;SDS011;11357;49.990;7.370;2022-09-21T12:24:41;18.33;;;17.38;;
22378;SDS011;11357;49.990;7.370;2022-09-21T12:27:14;9.55;;;7.55;;
22378;SDS011;11357;49.990;7.370;2022-09-21T12:30:02;484.52;;;449.63;;
22378;SDS011;11357;49.990;7.370;2022-09-21T12:32:38;3.65;;;3.38;;
22378;SDS011;11357;49.990;7.370;2022-09-21T12:40:54;190.32;;;180.23;;
22378;SDS011;11357;49.990;7.370;2022-09-21T12:46:28;157.23;;;147.55;;
22378;SDS011;11357;49.990;7.370;2022-09-21T12:49:04;1389.68;;;561.42;;
22378;SDS011;11357;49.990;7.370;2022-09-21T12:51:40;643.53;;;583.65;;
22378;SDS011;11357;49.990;7.370;2022-09-21T12:54:37;827.28;;;739.25;;
22378;SDS011;11357;49.990;7.370;2022-09-21T12:57:08;272.15;;;253.57;;
22378;SDS011;11357;49.990;7.370;2022-09-21T13:04:47;399.45;;;369.67;;
22378;SDS011;11357;49.990;7.370;2022-09-21T13:07:22;262.35;;;246.55;;
22378;SDS011;11357;49.990;7.370;2022-09-21T13:09:56;31.60;;;29.88;;
22378;SDS011;11357;49.990;7.370;2022-09-21T13:12:25;258.25;;;243.75;;
22378;SDS011;11357;49.990;7.370;2022-09-21T13:15:02;131.93;;;124.90;;
22378;SDS011;11357;49.990;7.370;2022-09-21T13:17:39;287.50;;;270.05;;
22378;SDS011;11357;49.990;7.370;2022-09-21T13:20:18;469.58;;;438.17;;
22378;SDS011;11357;49.990;7.370;2022-09-21T13:22:45;94.43;;;89.20;;
22378;SDS011;11357;49.990;7.370;2022-09-21T13:25:19;1999.90;;;999.90;;
22378;SDS011;11357;49.990;7.370;2022-09-21T13:41:01;1999.90;;;999.90;;
22378;SDS011;11357;49.990;7.370;2022-09-21T13:43:43;1999.90;;;999.90;;
22378;SDS011;11357;49.990;7.370;2022-09-21T13:51:35;1638.17;;;877.83;;
22378;SDS011;11357;49.990;7.370;2022-09-21T13:54:14;1999.90;;;778.07;;
22378;SDS011;11357;49.990;7.370;2022-09-21T13:56:40;782.77;;;712.83;;
22378;SDS011;11357;49.990;7.370;2022-09-21T13:59:14;1239.33;;;912.10;;
22378;SDS011;11357;49.990;7.370;2022-09-21T14:01:47;1968.57;;;986.93;;
22378;SDS011;11357;49.990;7.370;2022-09-21T14:04:35;1999.90;;;913.70;;
22378;SDS011;11357;49.990;7.370;2022-09-21T14:07:03;1999.90;;;999.90;;
22378;SDS011;11357;49.990;7.370;2022-09-21T14:09:35;1999.90;;;999.90;;
22378;SDS011;11357;49.990;7.370;2022-09-21T14:12:07;1999.90;;;999.90;;
22378;SDS011;11357;49.990;7.370;2022-09-21T14:14:43;1999.90;;;642.13;;
22378;SDS011;11357;49.990;7.370;2022-09-21T14:17:37;1489.85;;;456.90;;
22378;SDS011;11357;49.990;7.370;2022-09-21T14:20:05;1999.90;;;999.90;;
22378;SDS011;11357;49.990;7.370;2022-09-21T14:25:53;1772.40;;;386.60;;
22378;SDS011;11357;49.990;7.370;2022-09-21T14:31:19;1999.90;;;999.90;;
22378;SDS011;11357;49.990;7.370;2022-09-21T14:33:53;1999.90;;;999.90;;
22378;SDS011;11357;49.990;7.370;2022-09-21T14:36:25;1999.90;;;999.90;;
22378;SDS011;11357;49.990;7.370;2022-09-21T14:39:03;857.07;;;251.60;;
22378;SDS011;11357;49.990;7.370;2022-09-21T14:41:36;1999.90;;;574.07;;
22378;SDS011;11357;49.990;7.370;2022-09-21T14:44:04;1762.03;;;411.57;;
22378;SDS011;11357;49.990;7.370;2022-09-21T15:00:21;1100.70;;;801.37;;
22378;SDS011;11357;49.990;7.370;2022-09-21T15:14:02;474.67;;;431.50;;
22378;SDS011;11357;49.990;7.370;2022-09-21T15:16:45;283.80;;;267.27;;
22378;SDS011;11357;49.990;7.370;2022-09-21T15:21:41;125.13;;;117.90;;
22378;SDS011;11357;49.990;7.370;2022-09-21T15:24:22;130.40;;;122.53;;
22378;SDS011;11357;49.990;7.370;2022-09-21T15:26:53;264.20;;;247.93;;
22378;SDS011;11357;49.990;7.370;2022-09-21T15:29:28;312.60;;;292.87;;
22378;SDS011;11357;49.990;7.370;2022-09-21T15:31:56;205.33;;;193.80;;
22378;SDS011;11357;49.990;7.370;2022-09-21T15:34:23;266.03;;;249.77;;
22378;SDS011;11357;49.990;7.370;2022-09-21T15:36:49;441.37;;;410.53;;
22378;SDS011;11357;49.990;7.370;2022-09-21T15:39:50;1088.30;;;719.77;;
22378;SDS011;11357;49.990;7.370;2022-09-21T15:44:35;1365.43;;;932.13;;
22378;SDS011;11357;49.990;7.370;2022-09-21T15:47:02;1801.00;;;986.50;;
22378;SDS011;11357;49.990;7.370;2022-09-21T15:49:32;1999.90;;;845.43;;
22378;SDS011;11357;49.990;7.370;2022-09-21T15:52:00;1999.90;;;999.90;;
22378;SDS011;11357;49.990;7.370;2022-09-21T15:54:45;1999.90;;;999.90;;
22378;SDS011;11357;49.990;7.370;2022-09-21T16:00:05;1999.90;;;773.37;;
22378;SDS011;11357;49.990;7.370;2022-09-21T16:02:37;1999.90;;;999.90;;
22378;SDS011;11357;49.990;7.370;2022-09-21T16:05:11;1889.53;;;504.47;;
22378;SDS011;11357;49.990;7.370;2022-09-21T16:07:38;1999.90;;;708.03;;
22378;SDS011;11357;49.990;7.370;2022-09-21T16:10:50;1966.33;;;821.47;;
22378;SDS011;11357;49.990;7.370;2022-09-21T16:13:01;1260.50;;;947.67;;
22378;SDS011;11357;49.990;7.370;2022-09-21T16:16:04;496.57;;;124.30;;
22378;SDS011;11357;49.990;7.370;2022-09-21T16:23:40;1999.90;;;999.90;;
22378;SDS011;11357;49.990;7.370;2022-09-21T16:26:05;1999.90;;;999.90;;
22378;SDS011;11357;49.990;7.370;2022-09-21T16:28:42;1999.90;;;727.17;;
22378;SDS011;11357;49.990;7.370;2022-09-21T16:31:21;1562.27;;;425.97;;
22378;SDS011;11357;49.990;7.370;2022-09-21T16:38:44;1999.90;;;674.60;;
22378;SDS011;11357;49.990;7.370;2022-09-21T16:41:23;1999.90;;;828.67;;
22378;SDS011;11357;49.990;7.370;2022-09-21T16:43:56;1246.10;;;902.73;;
22378;SDS011;11357;49.990;7.370;2022-09-21T16:46:24;1999.90;;;999.90;;
22378;SDS011;11357;49.990;7.370;2022-09-21T16:48:51;1847.13;;;923.30;;
22378;SDS011;11357;49.990;7.370;2022-09-21T16:51:19;1320.93;;;865.23;;
22378;SDS011;11357;49.990;7.370;2022-09-21T16:53:49;1346.97;;;898.33;;
22378;SDS011;11357;49.990;7.370;2022-09-21T16:56:15;824.23;;;713.03;;
22378;SDS011;11357;49.990;7.370;2022-09-21T16:58:41;655.60;;;563.80;;
22378;SDS011;11357;49.990;7.370;2022-09-21T17:12:02;392.60;;;336.13;;
22378;SDS011;11357;49.990;7.370;2022-09-21T17:17:18;243.17;;;164.63;;
22378;SDS011;11357;49.990;7.370;2022-09-21T17:19:46;179.73;;;112.37;;
22378;SDS011;11357;49.990;7.370;2022-09-21T17:22:14;129.50;;;67.50;;
22378;SDS011;11357;49.990;7.370;2022-09-21T17:24:43;84.73;;;38.70;;
22378;SDS011;11357;49.990;7.370;2022-09-21T17:27:19;95.13;;;49.37;;
22378;SDS011;11357;49.990;7.370;2022-09-21T17:29:46;116.27;;;43.57;;
22378;SDS011;11357;49.990;7.370;2022-09-21T17:32:17;94.57;;;45.27;;
22378;SDS011;11357;49.990;7.370;2022-09-21T17:34:46;97.07;;;37.70;;
22378;SDS011;11357;49.990;7.370;2022-09-21T17:37:18;67.63;;;33.17;;
22378;SDS011;11357;49.990;7.370;2022-09-21T17:39:44;76.13;;;26.37;;
22378;SDS011;11357;49.990;7.370;2022-09-21T17:42:14;67.97;;;26.47;;
22378;SDS011;11357;49.990;7.370;2022-09-21T17:47:27;120.83;;;48.60;;
22378;SDS011;11357;49.990;7.370;2022-09-21T17:50:07;118.77;;;50.33;;
22378;SDS011;11357;49.990;7.370;2022-09-21T17:52:43;68.27;;;32.20;;
22378;SDS011;11357;49.990;7.370;2022-09-21T17:55:28;88.07;;;28.87;;
22378;SDS011;11357;49.990;7.370;2022-09-21T18:00:36;73.47;;;30.00;;
22378;SDS011;11357;49.990;7.370;2022-09-21T18:03:21;86.80;;;32.13;;
22378;SDS011;11357;49.990;7.370;2022-09-21T18:05:49;65.60;;;29.30;;
22378;SDS011;11357;49.990;7.370;2022-09-21T18:08:20;81.47;;;37.37;;
22378;SDS011;11357;49.990;7.370;2022-09-21T18:16:24;97.90;;;40.73;;
22378;SDS011;11357;49.990;7.370;2022-09-21T18:21:39;84.13;;;40.83;;
22378;SDS011;11357;49.990;7.370;2022-09-21T18:24:21;65.87;;;29.97;;